Time;durP1;ratioP1;P1;durP2;ratioP2;P2;SDS_P1;SDS_P2;PMS_P1;PMS_P2;Temp;Humidity;BMP_temperature;BMP_pressure;BME280_temperature;BME280_humidity;BME280_pressure;Samples;Min_cycle;Max_cycle;Signal;HPM_P1;HPM_P2
2021/03/30 00:02:21;;;;;;;9.33;6.63;;;15.20;60.70;;;;;;6301611;28;20462;-60
2021/03/30 00:05:23;;;;;;;9.07;6.30;;;15.20;61.20;;;;;;6302157;28;20970;-60
2021/03/30 00:08:25;;;;;;;8.60;6.27;;;15.10;61.50;;;;;;6302089;28;20473;-60
2021/03/30 00:11:28;;;;;;;9.63;5.63;;;15.00;61.90;;;;;;6302116;28;20461;-60
2021/03/30 00:14:31;;;;;;;7.40;5.70;;;15.00;61.90;;;;;;6302177;28;20470;-60
2021/03/30 00:17:34;;;;;;;5.90;5.00;;;14.90;62.40;;;;;;6301309;28;20978;-60
2021/03/30 00:20:36;;;;;;;6.97;5.10;;;14.90;63.20;;;;;;6302118;28;20481;-60
2021/03/30 00:23:38;;;;;;;8.80;5.73;;;14.80;63.60;;;;;;6301887;28;20473;-60
2021/03/30 00:26:40;;;;;;;8.57;5.40;;;14.80;64.20;;;;;;6301886;28;20476;-60
2021/03/30 00:29:43;;;;;;;8.60;7.13;;;14.70;64.30;;;;;;6301907;28;20574;-60
2021/03/30 00:32:47;;;;;;;8.10;6.10;;;14.70;64.80;;;;;;6302095;28;20474;-60
2021/03/30 00:35:49;;;;;;;5.63;4.63;;;14.70;65.70;;;;;;6301748;28;20464;-60
2021/03/30 00:38:52;;;;;;;8.33;5.33;;;14.60;66.70;;;;;;6301759;28;20786;-60
2021/03/30 00:41:54;;;;;;;6.57;4.30;;;14.60;67.40;;;;;;6301383;28;20481;-60
2021/03/30 00:44:58;;;;;;;6.77;4.80;;;14.50;67.70;;;;;;6301711;28;20469;-60
2021/03/30 00:48:00;;;;;;;5.30;4.13;;;14.40;68.40;;;;;;6291905;28;20481;-60
2021/03/30 00:51:03;;;;;;;4.60;4.10;;;14.40;69.30;;;;;;6301409;28;20479;-60
2021/03/30 00:54:06;;;;;;;5.50;4.13;;;14.40;70.40;;;;;;6301043;28;20484;-60
2021/03/30 00:57:08;;;;;;;4.03;3.63;;;14.40;71.30;;;;;;6300876;28;20458;-61
2021/03/30 01:00:14;;;;;;;4.60;3.30;;;14.40;71.10;;;;;;6301104;28;20448;-61
2021/03/30 01:03:16;;;;;;;4.93;4.20;;;14.40;70.50;;;;;;6301253;28;20462;-61
2021/03/30 01:06:18;;;;;;;6.90;3.57;;;14.30;71.10;;;;;;6300782;28;20449;-61
2021/03/30 01:09:30;;;;;;;5.33;4.00;;;14.30;71.50;;;;;;6301197;28;20446;-61
2021/03/30 01:12:52;;;;;;;5.40;4.90;;;14.40;72.00;;;;;;6300667;28;20481;-61
2021/03/30 01:16:03;;;;;;;8.37;7.17;;;14.30;71.90;;;;;;6300616;28;20461;-61
2021/03/30 01:19:18;;;;;;;6.30;5.50;;;14.20;71.90;;;;;;6300692;28;20939;-61
2021/03/30 01:22:42;;;;;;;6.07;5.00;;;14.10;72.40;;;;;;6300364;28;20822;-61
2021/03/30 01:25:53;;;;;;;6.00;4.97;;;14.10;73.60;;;;;;6300675;28;20466;-62
2021/03/30 01:29:12;;;;;;;5.23;4.73;;;14.10;74.10;;;;;;6300183;28;20951;-61
2021/03/30 01:32:23;;;;;;;7.27;4.50;;;14.00;74.30;;;;;;6300594;28;20974;-61
2021/03/30 01:35:27;;;;;;;4.90;4.50;;;14.00;74.60;;;;;;6300587;28;20473;-62
2021/03/30 01:38:30;;;;;;;4.70;4.30;;;13.90;74.70;;;;;;6300325;28;20963;-61
2021/03/30 01:41:33;;;;;;;7.27;4.87;;;13.80;74.90;;;;;;6299701;28;20485;-62
2021/03/30 01:44:40;;;;;;;4.27;3.87;;;13.80;75.00;;;;;;6299995;28;20484;-61
2021/03/30 01:47:43;;;;;;;5.90;3.80;;;13.90;75.40;;;;;;6300021;28;20488;-61
2021/03/30 01:50:46;;;;;;;5.83;4.10;;;13.90;75.50;;;;;;6290940;28;20485;-62
2021/03/30 01:53:48;;;;;;;4.33;3.80;;;13.80;75.70;;;;;;6299909;28;20481;-61
2021/03/30 01:56:54;;;;;;;5.80;4.13;;;13.80;75.90;;;;;;6299536;28;20492;-62
2021/03/30 01:59:59;;;;;;;7.30;4.30;;;13.80;76.00;;;;;;6300082;28;20484;-61
2021/03/30 02:03:06;;;;;;;4.37;3.33;;;13.70;77.20;;;;;;6299541;28;20477;-62
2021/03/30 02:06:08;;;;;;;5.13;4.20;;;13.60;76.50;;;;;;6275275;28;20446;-62
2021/03/30 02:09:18;;;;;;;5.57;3.63;;;13.60;76.50;;;;;;6299778;28;20437;-62
2021/03/30 02:12:23;;;;;;;8.03;3.63;;;13.60;76.40;;;;;;6299361;28;20801;-61
2021/03/30 02:15:27;;;;;;;5.67;3.70;;;13.60;75.50;;;;;;6300045;28;20433;-61
2021/03/30 02:18:33;;;;;;;3.40;3.07;;;13.50;75.00;;;;;;6299723;28;20457;-62
2021/03/30 02:21:42;;;;;;;5.03;3.40;;;13.50;75.80;;;;;;6299719;28;20480;-62
2021/03/30 02:24:44;;;;;;;4.00;3.70;;;13.40;76.10;;;;;;6299229;28;20845;-62
2021/03/30 02:27:49;;;;;;;5.53;4.03;;;13.30;76.50;;;;;;6299179;28;20473;-62
2021/03/30 02:30:53;;;;;;;12.80;4.53;;;13.20;77.20;;;;;;6299553;28;20481;-62
2021/03/30 02:33:58;;;;;;;3.90;3.50;;;13.20;77.90;;;;;;6299202;28;20480;-62
2021/03/30 02:37:01;;;;;;;5.80;3.40;;;13.10;78.40;;;;;;6299589;28;20484;-62
2021/03/30 02:40:06;;;;;;;4.07;3.63;;;13.00;78.80;;;;;;6298617;28;20480;-62
2021/03/30 02:43:09;;;;;;;4.10;3.37;;;13.00;79.40;;;;;;6298826;28;20480;-62
2021/03/30 02:46:15;;;;;;;4.70;4.27;;;13.00;80.50;;;;;;6298989;28;20469;-61
2021/03/30 02:49:19;;;;;;;9.00;4.10;;;13.00;80.20;;;;;;6299176;28;20480;-62
2021/03/30 02:52:24;;;;;;;5.43;3.70;;;12.90;80.70;;;;;;6299227;28;20476;-62
2021/03/30 02:55:27;;;;;;;4.60;4.00;;;13.00;81.10;;;;;;6299184;28;20552;-62
2021/03/30 02:58:33;;;;;;;8.70;3.60;;;13.00;81.40;;;;;;6299128;28;20478;-62
2021/03/30 03:01:37;;;;;;;3.80;3.50;;;13.00;81.50;;;;;;6298930;28;20469;-62
2021/03/30 03:04:39;;;;;;;5.00;3.83;;;12.90;81.40;;;;;;6298872;28;20465;-62
2021/03/30 03:07:42;;;;;;;3.93;3.53;;;12.90;81.50;;;;;;6299247;28;20469;-62
2021/03/30 03:10:45;;;;;;;7.13;3.67;;;12.80;81.60;;;;;;6298997;28;20462;-62
2021/03/30 03:13:52;;;;;;;4.60;3.50;;;12.70;82.00;;;;;;6298918;28;20473;-62
2021/03/30 03:16:57;;;;;;;3.87;3.57;;;12.70;82.10;;;;;;6298566;28;20935;-62
2021/03/30 03:20:00;;;;;;;6.80;3.93;;;12.50;82.60;;;;;;6299140;28;20468;-62
2021/03/30 03:23:04;;;;;;;6.00;4.00;;;12.40;83.50;;;;;;6298308;28;20469;-62
2021/03/30 03:26:07;;;;;;;6.33;4.00;;;12.40;84.00;;;;;;6298575;28;20465;-62
2021/03/30 03:29:16;;;;;;;4.83;4.43;;;12.40;84.70;;;;;;6298392;28;20481;-62
2021/03/30 03:32:23;;;;;;;4.73;3.50;;;12.30;84.80;;;;;;6298521;28;20466;-62
2021/03/30 03:35:25;;;;;;;3.90;3.60;;;12.30;84.90;;;;;;6298402;28;20824;-62
2021/03/30 03:38:28;;;;;;;6.43;4.43;;;12.20;84.60;;;;;;6298795;28;20819;-62
2021/03/30 03:41:30;;;;;;;5.67;4.50;;;12.20;84.60;;;;;;6298430;28;20485;-62
2021/03/30 03:44:32;;;;;;;12.57;4.40;;;12.20;84.70;;;;;;6298740;28;21037;-62
2021/03/30 03:47:35;;;;;;;6.40;3.60;;;12.10;84.80;;;;;;6298039;28;20993;-62
2021/03/30 03:50:38;;;;;;;7.13;4.20;;;12.10;85.00;;;;;;6298233;28;20484;-62
2021/03/30 03:53:43;;;;;;;5.00;3.50;;;12.00;85.20;;;;;;6301624;28;20473;-62
2021/03/30 03:56:47;;;;;;;5.20;3.57;;;11.90;85.30;;;;;;6302511;28;20480;-62
2021/03/30 03:59:50;;;;;;;5.23;3.80;;;11.90;85.60;;;;;;6297817;28;20501;-62
2021/03/30 04:03:00;;;;;;;9.43;4.50;;;11.90;85.70;;;;;;6302247;28;20481;-62
2021/03/30 04:06:09;;;;;;;7.97;4.17;;;11.80;85.60;;;;;;6302775;28;20962;-62
2021/03/30 04:09:16;;;;;;;7.50;4.40;;;11.60;85.90;;;;;;6301301;28;20446;-62
2021/03/30 04:12:20;;;;;;;8.57;4.30;;;11.60;86.40;;;;;;6277255;28;20793;-62
2021/03/30 04:15:25;;;;;;;4.67;4.23;;;11.60;86.50;;;;;;6277584;28;20438;-62
2021/03/30 04:18:28;;;;;;;6.07;4.50;;;11.50;86.50;;;;;;6277356;28;20794;-62
2021/03/30 04:21:32;;;;;;;5.50;4.70;;;11.50;87.00;;;;;;6277197;28;20466;-62
2021/03/30 04:24:34;;;;;;;6.63;4.50;;;11.50;86.60;;;;;;6277647;28;20482;-62
2021/03/30 04:27:36;;;;;;;5.27;3.63;;;11.50;87.20;;;;;;6277169;28;20470;-62
2021/03/30 04:30:39;;;;;;;9.30;3.73;;;11.40;87.10;;;;;;6277419;28;20462;-62
2021/03/30 04:33:42;;;;;;;9.90;4.10;;;11.40;87.60;;;;;;6277189;28;20485;-62
2021/03/30 04:36:44;;;;;;;9.53;4.47;;;11.30;87.40;;;;;;6276950;28;20474;-62
2021/03/30 04:39:46;;;;;;;9.77;4.50;;;11.40;87.60;;;;;;6277057;28;20488;-63
2021/03/30 04:42:49;;;;;;;6.37;4.43;;;11.40;87.20;;;;;;6276620;28;20475;-61
2021/03/30 04:45:51;;;;;;;5.83;4.50;;;11.30;86.70;;;;;;6276506;28;20470;-62
2021/03/30 04:48:54;;;;;;;6.27;5.63;;;11.30;86.80;;;;;;6276577;28;20470;-62
2021/03/30 04:51:56;;;;;;;6.40;4.47;;;11.30;87.00;;;;;;6276329;28;20812;-63
2021/03/30 04:54:59;;;;;;;8.70;4.87;;;11.20;87.60;;;;;;6276666;28;20829;-63
2021/03/30 04:58:01;;;;;;;13.43;5.53;;;11.20;87.00;;;;;;6276074;28;20479;-63
2021/03/30 05:01:04;;;;;;;9.20;6.43;;;11.20;87.00;;;;;;6271602;28;20478;-63
2021/03/30 05:04:07;;;;;;;5.20;4.70;;;11.30;86.20;;;;;;6275699;28;20478;-63
2021/03/30 05:07:10;;;;;;;6.80;4.13;;;11.30;85.50;;;;;;6276629;28;20470;-62
2021/03/30 05:10:13;;;;;;;4.90;4.40;;;11.30;85.60;;;;;;6275991;28;20462;-62
2021/03/30 05:13:18;;;;;;;10.70;5.13;;;11.30;85.50;;;;;;6276100;28;20470;-63
2021/03/30 05:16:20;;;;;;;5.90;4.07;;;11.30;85.80;;;;;;6275666;28;20999;-63
2021/03/30 05:19:23;;;;;;;10.23;5.40;;;11.30;85.90;;;;;;6276391;28;20470;-63
2021/03/30 05:22:25;;;;;;;10.93;5.17;;;11.30;86.10;;;;;;6275899;28;20466;-63
2021/03/30 05:25:27;;;;;;;10.20;5.27;;;11.20;87.00;;;;;;6275861;28;20480;-63
2021/03/30 05:28:29;;;;;;;9.07;5.57;;;11.20;87.30;;;;;;6275587;28;20489;-62
2021/03/30 05:31:32;;;;;;;19.93;8.70;;;11.20;87.30;;;;;;6275231;28;20493;-63
2021/03/30 05:34:35;;;;;;;11.10;5.20;;;11.30;87.10;;;;;;6275915;28;20497;-62
2021/03/30 05:37:37;;;;;;;8.80;6.00;;;11.20;87.00;;;;;;6275972;28;20829;-62
2021/03/30 05:40:40;;;;;;;7.10;5.47;;;11.30;87.10;;;;;;6275639;28;20936;-62
2021/03/30 05:43:43;;;;;;;10.03;5.93;;;11.30;86.20;;;;;;6275668;28;20474;-62
2021/03/30 05:46:49;;;;;;;6.60;4.60;;;11.40;86.40;;;;;;6275410;28;20484;-62
2021/03/30 05:49:53;;;;;;;7.23;4.93;;;11.50;85.10;;;;;;6275293;28;20786;-62
2021/03/30 05:53:04;;;;;;;16.40;5.70;;;11.60;84.10;;;;;;6274713;28;20496;-63
2021/03/30 05:56:07;;;;;;;8.43;6.10;;;11.70;83.40;;;;;;6275598;28;20482;-62
2021/03/30 05:59:11;;;;;;;9.57;5.80;;;11.80;83.40;;;;;;6274845;28;20539;-62
2021/03/30 06:02:21;;;;;;;11.67;5.57;;;11.80;83.10;;;;;;6274459;28;20478;-62
2021/03/30 06:05:24;;;;;;;10.53;5.30;;;11.80;83.00;;;;;;6274833;28;20474;-62
2021/03/30 06:08:28;;;;;;;8.10;5.90;;;11.90;83.10;;;;;;6269825;28;20968;-62
2021/03/30 06:11:31;;;;;;;9.53;6.37;;;11.90;82.40;;;;;;6274582;28;20484;-62
2021/03/30 06:14:44;;;;;;;9.20;6.57;;;12.00;82.20;;;;;;6273998;28;20478;-62
2021/03/30 06:17:48;;;;;;;10.50;6.40;;;12.10;81.90;;;;;;6273599;28;20471;-63
2021/03/30 06:20:51;;;;;;;11.27;6.50;;;12.20;82.00;;;;;;6274257;28;20474;-63
2021/03/30 06:23:55;;;;;;;7.30;5.20;;;12.30;81.50;;;;;;6274237;28;20470;-63
2021/03/30 06:27:17;;;;;;;11.73;5.50;;;12.60;80.30;;;;;;6274098;28;20481;-62
2021/03/30 06:30:29;;;;;;;10.03;5.63;;;12.90;79.50;;;;;;6298854;28;20487;-62
2021/03/30 06:33:32;;;;;;;9.17;5.57;;;13.40;78.10;;;;;;6299357;28;20471;-62
2021/03/30 06:36:40;;;;;;;9.50;5.00;;;14.50;75.00;;;;;;6299772;28;20466;-62
2021/03/30 06:39:43;;;;;;;11.13;6.03;;;16.10;69.00;;;;;;6299444;28;20465;-62
2021/03/30 06:42:48;;;;;;;8.47;4.53;;;17.50;63.50;;;;;;6299045;28;20469;-62
2021/03/30 06:45:50;;;;;;;10.83;4.97;;;18.80;57.40;;;;;;6299170;28;20987;-62
2021/03/30 06:48:52;;;;;;;10.30;5.50;;;19.80;54.00;;;;;;6298891;28;20599;-63
2021/03/30 06:51:56;;;;;;;12.10;5.70;;;21.20;50.60;;;;;;6298472;28;20241;-63
2021/03/30 06:55:01;;;;;;;8.00;5.40;;;22.20;46.80;;;;;;6296884;28;20235;-62
2021/03/30 06:58:04;;;;;;;13.57;6.70;;;23.40;43.40;;;;;;6296368;28;20622;-62
2021/03/30 07:01:06;;;;;;;9.57;6.63;;;24.20;41.30;;;;;;6296378;28;20237;-64
2021/03/30 07:04:10;;;;;;;14.53;6.50;;;25.10;38.70;;;;;;6296333;28;20566;-62
2021/03/30 07:07:15;;;;;;;15.20;5.57;;;26.00;36.70;;;;;;6296363;28;20692;-62
2021/03/30 07:10:18;;;;;;;8.60;5.93;;;27.00;33.70;;;;;;6293370;28;20561;-63
2021/03/30 07:13:22;;;;;;;7.97;5.40;;;28.00;32.20;;;;;;6298467;28;20238;-63
2021/03/30 07:16:30;;;;;;;9.43;4.93;;;28.90;30.00;;;;;;6299280;28;20241;-63
2021/03/30 07:19:32;;;;;;;8.87;6.73;;;29.90;28.30;;;;;;6299374;28;20227;-63
2021/03/30 07:22:37;;;;;;;12.17;6.90;;;30.40;28.50;;;;;;6298176;28;20577;-64
2021/03/30 07:25:48;;;;;;;13.67;7.70;;;29.80;28.70;;;;;;6299425;28;20226;-62
2021/03/30 07:28:53;;;;;;;7.57;6.77;;;28.80;28.90;;;;;;6279820;28;20258;-63
2021/03/30 07:32:02;;;;;;;13.77;7.33;;;27.40;30.00;;;;;;6278548;28;20311;-63
2021/03/30 07:35:13;;;;;;;8.90;6.90;;;26.30;32.20;;;;;;6290699;28;20305;-63
2021/03/30 07:38:19;;;;;;;13.57;7.47;;;26.30;32.10;;;;;;6290829;28;20226;-62
2021/03/30 07:41:25;;;;;;;9.93;6.13;;;26.30;31.90;;;;;;6303212;28;20574;-62
2021/03/30 07:44:28;;;;;;;9.40;5.60;;;27.40;31.10;;;;;;6303024;28;20251;-62
2021/03/30 07:47:30;;;;;;;13.40;6.50;;;29.80;28.70;;;;;;6302915;28;20227;-62
2021/03/30 07:50:53;;;;;;;10.73;6.13;;;31.90;26.30;;;;;;6293292;28;20238;-63
2021/03/30 07:54:08;;;;;;;15.38;7.15;;;33.70;24.50;;;;;;6284655;28;20235;-65
2021/03/30 07:57:13;;;;;;;9.32;6.40;;;34.40;23.50;;;;;;6302960;28;20214;-65
2021/03/30 08:00:54;;;;;;;8.20;5.53;;;35.70;22.10;;;;;;6300572;28;20203;-64
2021/03/30 08:03:58;;;;;;;6.30;4.90;;;36.90;21.60;;;;;;6302461;28;20237;-66
2021/03/30 08:07:12;;;;;;;6.50;5.03;;;38.10;19.90;;;;;;6281674;28;20238;-65
2021/03/30 08:10:22;;;;;;;6.35;4.60;;;39.00;19.40;;;;;;6277599;28;20238;-65
2021/03/30 08:13:30;;;;;;;7.63;6.63;;;40.00;18.60;;;;;;6265788;28;20310;-64
2021/03/30 08:16:35;;;;;;;9.32;6.35;;;41.10;17.70;;;;;;6274867;28;20231;-63
2021/03/30 08:20:02;;;;;;;8.02;5.70;;;41.40;17.30;;;;;;6275223;28;20234;-64
2021/03/30 08:23:11;;;;;;;7.35;6.03;;;41.50;17.20;;;;;;6275013;28;20716;-64
2021/03/30 08:26:19;;;;;;;10.13;6.10;;;40.20;17.70;;;;;;6275758;28;20246;-64
2021/03/30 08:29:32;;;;;;;11.00;5.57;;;39.50;18.00;;;;;;6274644;28;20289;-63
2021/03/30 08:32:35;;;;;;;6.85;5.32;;;38.90;18.20;;;;;;6274919;28;20227;-64
2021/03/30 08:35:39;;;;;;;11.40;6.15;;;39.20;18.30;;;;;;6274924;28;20269;-63
2021/03/30 08:38:44;;;;;;;7.82;5.72;;;40.20;18.20;;;;;;6273926;28;20645;-64
2021/03/30 08:41:56;;;;;;;10.52;5.95;;;41.50;17.20;;;;;;6275352;28;20255;-63
2021/03/30 08:45:06;;;;;;;6.60;5.55;;;43.00;16.80;;;;;;6274792;28;20684;-64
2021/03/30 08:48:11;;;;;;;9.80;5.22;;;43.90;15.80;;;;;;6274088;28;20650;-64
2021/03/30 08:51:16;;;;;;;8.60;4.65;;;44.30;15.40;;;;;;6259703;28;20281;-65
2021/03/30 08:54:19;;;;;;;6.80;4.28;;;45.20;14.70;;;;;;6270268;28;20291;-64
2021/03/30 08:57:25;;;;;;;8.75;5.22;;;45.30;14.60;;;;;;6249440;28;20214;-62
2021/03/30 09:00:28;;;;;;;6.95;5.35;;;45.90;14.10;;;;;;6272659;28;20188;-66
2021/03/30 09:03:34;;;;;;;8.23;6.05;;;46.70;13.90;;;;;;6274389;28;20324;-63
2021/03/30 09:06:37;;;;;;;10.90;5.38;;;46.60;13.80;;;;;;6274538;28;20230;-64
2021/03/30 09:09:39;;;;;;;5.95;4.72;;;46.70;13.90;;;;;;6274403;28;20237;-64
2021/03/30 09:12:43;;;;;;;6.82;4.85;;;47.60;14.20;;;;;;6275997;28;20771;-63
2021/03/30 09:15:46;;;;;;;12.52;5.35;;;47.50;13.30;;;;;;6271227;28;20241;-65
2021/03/30 09:18:49;;;;;;;4.78;4.10;;;48.30;13.00;;;;;;6275659;28;20620;-65
2021/03/30 09:21:55;;;;;;;5.60;3.20;;;49.20;12.00;;;;;;6275437;28;20254;-64
2021/03/30 09:25:14;;;;;;;6.47;3.42;;;50.30;11.70;;;;;;6275865;28;20231;-64
2021/03/30 09:28:18;;;;;;;3.95;3.63;;;51.30;11.00;;;;;;6275392;28;20318;-67
2021/03/30 09:31:21;;;;;;;7.03;4.15;;;50.60;10.90;;;;;;6275377;28;20231;-64
2021/03/30 09:34:25;;;;;;;6.10;3.65;;;51.30;10.80;;;;;;6275498;28;20227;-62
2021/03/30 09:37:33;;;;;;;6.32;3.65;;;51.80;10.90;;;;;;6275246;28;20277;-62
2021/03/30 09:40:39;;;;;;;3.97;3.58;;;51.20;10.80;;;;;;6274793;28;20321;-64
2021/03/30 09:43:42;;;;;;;6.35;2.97;;;50.00;11.00;;;;;;6250536;28;20325;-65
2021/03/30 09:46:47;;;;;;;4.25;3.47;;;47.80;11.40;;;;;;6250640;28;20235;-62
2021/03/30 09:49:49;;;;;;;6.88;3.50;;;48.20;11.60;;;;;;6250314;28;20228;-61
2021/03/30 09:52:52;;;;;;;9.43;2.95;;;47.10;11.70;;;;;;6250050;28;20238;-61
2021/03/30 09:55:54;;;;;;;5.18;3.05;;;45.60;11.80;;;;;;6250092;28;20240;-61
2021/03/30 09:58:59;;;;;;;7.28;3.15;;;45.20;12.00;;;;;;6263535;28;20216;-62
2021/03/30 10:02:02;;;;;;;8.32;3.03;;;45.30;12.30;;;;;;6249364;28;20678;-61
2021/03/30 10:05:08;;;;;;;6.18;3.47;;;46.80;11.80;;;;;;6249730;28;20227;-62
2021/03/30 10:08:18;;;;;;;7.07;2.85;;;47.70;11.60;;;;;;6249639;28;20749;-61
2021/03/30 10:11:27;;;;;;;6.72;3.30;;;47.70;11.50;;;;;;6249811;28;20242;-60
2021/03/30 10:14:30;;;;;;;7.38;3.40;;;47.40;11.60;;;;;;6268667;28;20234;-60
2021/03/30 10:17:33;;;;;;;4.97;2.70;;;45.30;11.50;;;;;;6274095;28;20235;-61
2021/03/30 10:20:36;;;;;;;6.65;3.17;;;44.10;12.60;;;;;;6268884;28;20231;-61
2021/03/30 10:23:41;;;;;;;5.30;2.97;;;43.20;12.90;;;;;;6273591;28;20230;-61
2021/03/30 10:27:09;;;;;;;5.68;2.58;;;41.20;13.10;;;;;;6273577;28;20227;-60
2021/03/30 10:30:13;;;;;;;5.20;3.13;;;38.40;14.30;;;;;;6272796;28;20318;-61
2021/03/30 10:33:33;;;;;;;5.30;2.50;;;36.60;15.40;;;;;;6274068;28;20220;-61
2021/03/30 10:36:36;;;;;;;4.63;2.55;;;34.60;16.60;;;;;;6274889;28;20227;-60
2021/03/30 10:39:41;;;;;;;4.05;2.58;;;32.60;17.90;;;;;;6274008;28;20249;-60
2021/03/30 10:42:43;;;;;;;4.05;2.72;;;31.80;18.60;;;;;;6281969;28;20668;-60
2021/03/30 10:45:47;;;;;;;5.40;2.47;;;31.20;19.10;;;;;;6273937;28;20231;-62
2021/03/30 10:49:00;;;;;;;4.27;3.20;;;30.50;19.60;;;;;;6274565;28;20238;-62
2021/03/30 10:52:03;;;;;;;3.77;2.70;;;29.40;20.90;;;;;;6273644;28;20250;-66
2021/03/30 10:55:08;;;;;;;3.63;3.10;;;28.90;21.00;;;;;;6274540;28;20242;-61
2021/03/30 10:58:13;;;;;;;5.63;2.90;;;28.70;21.40;;;;;;6277843;28;20222;-64
2021/03/30 11:01:16;;;;;;;4.87;2.80;;;28.30;21.80;;;;;;6300853;28;20237;-62
2021/03/30 11:04:18;;;;;;;3.30;2.83;;;27.80;22.20;;;;;;6303884;28;20230;-61
2021/03/30 11:07:20;;;;;;;2.80;2.60;;;27.40;22.30;;;;;;6303758;28;20229;-62
2021/03/30 11:10:24;;;;;;;5.33;2.43;;;27.40;22.50;;;;;;6303384;28;20230;-62
2021/03/30 11:13:26;;;;;;;3.37;2.73;;;27.40;22.70;;;;;;6303212;28;20610;-62
2021/03/30 11:16:29;;;;;;;4.20;2.80;;;27.40;22.50;;;;;;6303729;28;20233;-62
2021/03/30 11:19:32;;;;;;;5.33;2.60;;;27.40;22.60;;;;;;6303485;28;20241;-61
2021/03/30 11:22:35;;;;;;;5.93;3.40;;;27.40;23.00;;;;;;6303234;28;20233;-63
2021/03/30 11:25:39;;;;;;;3.57;3.17;;;27.40;22.80;;;;;;6303083;28;20226;-60
2021/03/30 11:28:44;;;;;;;5.43;3.37;;;26.80;22.80;;;;;;6303370;28;20234;-60
2021/03/30 11:35:11;;;;;;;4.63;3.97;;;26.60;23.30;;;;;;6303152;28;20243;-61
2021/03/30 11:38:16;;;;;;;5.37;3.20;;;26.60;23.50;;;;;;6303441;28;20336;-62
2021/03/30 11:41:18;;;;;;;5.03;2.77;;;26.60;23.30;;;;;;6302239;28;20226;-59
2021/03/30 11:44:20;;;;;;;5.50;3.20;;;26.60;23.50;;;;;;6280039;28;20238;-60
2021/03/30 11:47:23;;;;;;;5.83;3.33;;;26.70;23.60;;;;;;6275727;28;20580;-62
2021/03/30 11:50:26;;;;;;;3.93;3.53;;;27.20;23.10;;;;;;6275183;28;20230;-60
2021/03/30 11:53:28;;;;;;;4.50;3.53;;;27.50;23.10;;;;;;6275766;28;20219;-59
2021/03/30 11:56:31;;;;;;;6.40;4.43;;;27.60;22.50;;;;;;6274138;28;20291;-60
2021/03/30 11:59:35;;;;;;;5.10;3.40;;;27.40;22.80;;;;;;6293815;28;20663;-62
2021/03/30 12:02:38;;;;;;;3.87;3.57;;;27.40;22.60;;;;;;6278154;28;20230;-59
2021/03/30 12:05:40;;;;;;;3.60;3.27;;;27.20;22.90;;;;;;6277260;28;20223;-58
2021/03/30 12:08:43;;;;;;;5.17;4.00;;;27.20;22.90;;;;;;6277179;28;20257;-63
2021/03/30 12:11:46;;;;;;;5.70;3.20;;;27.20;23.00;;;;;;6276397;28;20231;-66
2021/03/30 12:14:49;;;;;;;7.43;3.60;;;27.20;23.40;;;;;;6276873;28;20234;-65
2021/03/30 12:17:52;;;;;;;5.77;3.57;;;27.30;23.50;;;;;;6277267;28;20223;-65
2021/03/30 12:20:54;;;;;;;5.03;3.20;;;27.70;23.20;;;;;;6277379;28;20227;-64
2021/03/30 12:23:57;;;;;;;4.30;3.43;;;28.00;22.90;;;;;;6277105;28;20242;-65
2021/03/30 12:26:59;;;;;;;4.10;3.40;;;28.30;23.00;;;;;;6277130;28;20293;-65
2021/03/30 12:30:01;;;;;;;4.30;3.33;;;28.30;22.80;;;;;;6276464;28;20300;-65
2021/03/30 12:33:05;;;;;;;3.93;3.07;;;28.20;22.90;;;;;;6277174;28;20226;-65
2021/03/30 12:36:08;;;;;;;5.33;3.40;;;28.10;22.90;;;;;;6276824;28;20715;-65
2021/03/30 12:39:11;;;;;;;5.97;3.47;;;27.90;22.70;;;;;;6276743;28;20227;-59
2021/03/30 12:42:13;;;;;;;3.93;3.30;;;27.90;22.90;;;;;;6276824;28;20227;-58
2021/03/30 12:45:15;;;;;;;5.10;3.17;;;27.80;23.20;;;;;;6277077;28;20210;-64
2021/03/30 12:48:18;;;;;;;6.30;4.00;;;27.50;23.00;;;;;;6276559;28;20556;-65
2021/03/30 12:51:21;;;;;;;5.87;3.27;;;27.60;23.50;;;;;;6277289;28;20228;-63
2021/03/30 12:54:23;;;;;;;6.27;3.80;;;27.50;23.20;;;;;;6276236;28;20199;-62
2021/03/30 12:57:26;;;;;;;4.43;3.43;;;27.50;23.40;;;;;;6276574;28;20198;-64
2021/03/30 13:00:28;;;;;;;3.17;2.87;;;27.00;23.70;;;;;;6290939;28;20214;-60
2021/03/30 13:03:31;;;;;;;3.83;3.30;;;27.00;24.70;;;;;;6283252;28;20234;-60
2021/03/30 13:06:34;;;;;;;4.07;3.07;;;27.10;24.30;;;;;;6300788;28;20603;-63
2021/03/30 13:09:36;;;;;;;4.10;3.30;;;27.40;23.90;;;;;;6279734;28;20233;-63
2021/03/30 13:12:39;;;;;;;4.20;3.50;;;27.70;23.50;;;;;;6276038;28;20567;-61
2021/03/30 13:15:58;;;;;;;6.37;3.70;;;27.90;23.90;;;;;;6279298;28;20250;-64
2021/03/30 13:19:01;;;;;;;4.20;3.63;;;28.20;23.40;;;;;;6300817;28;20581;-62
2021/03/30 13:22:25;;;;;;;4.60;4.03;;;28.20;23.10;;;;;;6300493;28;20540;-62
2021/03/30 13:25:33;;;;;;;6.00;3.50;;;28.00;23.20;;;;;;6300247;28;20313;-63
2021/03/30 13:28:42;;;;;;;6.93;5.20;;;27.90;23.50;;;;;;6300472;28;20321;-65
2021/03/30 13:31:44;;;;;;;5.73;3.10;;;27.80;23.90;;;;;;6298768;28;20242;-64
2021/03/30 13:34:49;;;;;;;3.30;2.70;;;27.80;23.80;;;;;;6282346;28;20249;-63
2021/03/30 13:37:52;;;;;;;4.43;3.07;;;27.90;23.80;;;;;;6272348;28;20632;-63
2021/03/30 13:40:56;;;;;;;4.10;3.00;;;27.90;23.50;;;;;;6281760;28;20233;-62
2021/03/30 13:44:12;;;;;;;6.00;3.13;;;28.10;23.70;;;;;;6275214;28;20269;-62
2021/03/30 13:47:14;;;;;;;6.63;3.20;;;28.50;23.40;;;;;;6275424;28;20231;-64
2021/03/30 13:50:18;;;;;;;5.30;3.13;;;28.00;23.50;;;;;;6274974;28;20241;-61
2021/03/30 13:53:20;;;;;;;7.20;3.47;;;27.50;23.90;;;;;;6273281;28;20231;-63
2021/03/30 13:56:23;;;;;;;5.60;2.50;;;27.00;24.40;;;;;;6272737;28;20234;-61
2021/03/30 13:59:25;;;;;;;3.13;2.30;;;27.00;24.50;;;;;;6272609;28;20233;-62
2021/03/30 14:02:27;;;;;;;5.67;2.80;;;27.00;24.60;;;;;;6272459;28;20227;-61
2021/03/30 14:05:32;;;;;;;5.23;2.83;;;26.50;24.80;;;;;;6272243;28;20314;-62
2021/03/30 14:08:35;;;;;;;6.27;3.77;;;26.40;25.00;;;;;;6276924;28;20238;-62
2021/03/30 14:11:42;;;;;;;6.90;2.60;;;26.20;25.10;;;;;;6273262;28;20296;-62
2021/03/30 14:14:48;;;;;;;6.13;2.70;;;26.30;25.10;;;;;;6272481;28;20243;-64
2021/03/30 14:17:59;;;;;;;4.77;2.67;;;26.10;25.20;;;;;;6272299;28;20227;-60
2021/03/30 14:21:05;;;;;;;5.63;2.83;;;25.90;25.30;;;;;;6271840;28;20369;-60
2021/03/30 14:24:17;;;;;;;4.80;2.80;;;25.80;25.40;;;;;;6271848;28;20238;-62
2021/03/30 14:27:20;;;;;;;3.20;2.17;;;25.80;25.50;;;;;;6273439;28;20208;-63
2021/03/30 14:30:43;;;;;;;5.30;3.20;;;25.80;25.50;;;;;;6274314;28;20231;-59
2021/03/30 14:33:46;;;;;;;6.47;2.83;;;25.60;25.60;;;;;;6274209;28;20307;-60
2021/03/30 14:36:50;;;;;;;5.77;3.33;;;25.40;25.90;;;;;;6263608;28;20231;-60
2021/03/30 14:39:54;;;;;;;7.63;2.60;;;25.20;26.30;;;;;;6279450;28;20242;-60
2021/03/30 14:42:59;;;;;;;5.00;2.53;;;25.20;26.60;;;;;;6282260;28;20242;-60
2021/03/30 14:53:22;;;;;;;3.20;2.87;;;24.80;27.00;;;;;;6273530;28;20238;-60
2021/03/30 14:56:26;;;;;;;5.10;2.83;;;24.60;27.30;;;;;;6273720;28;20227;-60
2021/03/30 14:59:41;;;;;;;7.50;3.17;;;24.80;27.00;;;;;;6273394;28;20235;-62
2021/03/30 15:03:10;;;;;;;7.50;3.60;;;24.70;26.90;;;;;;6273608;28;20231;-61
2021/03/30 15:06:12;;;;;;;3.73;2.70;;;24.60;26.90;;;;;;6248900;28;20231;-61
2021/03/30 15:09:15;;;;;;;5.97;3.00;;;24.60;27.60;;;;;;6269331;28;20203;-61
2021/03/30 15:12:28;;;;;;;5.00;3.17;;;24.70;27.20;;;;;;6273888;28;20252;-61
2021/03/30 15:15:31;;;;;;;3.97;3.00;;;24.60;27.30;;;;;;6273659;28;20614;-61
2021/03/30 15:18:34;;;;;;;4.67;2.60;;;24.50;27.20;;;;;;6273980;28;20246;-61
2021/03/30 15:21:36;;;;;;;5.73;3.47;;;24.30;27.10;;;;;;6272527;28;20246;-62
2021/03/30 15:24:42;;;;;;;3.90;2.83;;;24.20;27.20;;;;;;6259807;28;20674;-63
2021/03/30 15:27:44;;;;;;;3.60;2.90;;;24.20;27.40;;;;;;6260839;28;20243;-62
2021/03/30 15:30:46;;;;;;;4.13;3.00;;;24.30;27.40;;;;;;6260705;28;20235;-62
2021/03/30 15:33:49;;;;;;;3.37;2.47;;;24.20;27.60;;;;;;6252051;28;20684;-62
2021/03/30 15:36:51;;;;;;;4.73;2.97;;;24.10;28.00;;;;;;6248633;28;20575;-62
2021/03/30 15:39:56;;;;;;;5.57;2.90;;;23.90;27.80;;;;;;6245346;28;20860;-62
2021/03/30 15:42:58;;;;;;;4.03;2.67;;;23.70;27.80;;;;;;6255810;28;20238;-62
2021/03/30 15:46:08;;;;;;;8.10;3.20;;;23.40;28.20;;;;;;6248602;28;20224;-63
2021/03/30 15:49:11;;;;;;;7.10;3.90;;;23.20;28.50;;;;;;6265994;28;20232;-66
2021/03/30 15:52:14;;;;;;;3.67;3.27;;;23.30;28.70;;;;;;6259444;28;20230;-65
2021/03/30 15:55:18;;;;;;;4.33;3.10;;;23.40;28.50;;;;;;6277738;28;20309;-66
2021/03/30 15:58:20;;;;;;;6.53;3.53;;;23.40;28.60;;;;;;6272023;28;20224;-66
2021/03/30 16:01:25;;;;;;;3.70;2.80;;;23.50;28.40;;;;;;6253193;28;20228;-65
2021/03/30 16:04:31;;;;;;;4.50;2.90;;;23.70;28.40;;;;;;6252878;28;20224;-66
2021/03/30 16:07:34;;;;;;;6.93;3.00;;;23.80;28.30;;;;;;6253514;28;20268;-66
2021/03/30 16:10:38;;;;;;;5.33;3.27;;;23.70;28.30;;;;;;6252744;28;20225;-66
2021/03/30 16:13:40;;;;;;;3.23;2.93;;;23.60;28.30;;;;;;6252409;28;20685;-66